Time,TemperatureF,DewpointF,PressureIn,WindDirection,WindDirectionDegrees,WindSpeedMPH,WindSpeedGustMPH,Humidity,HourlyPrecipIn,Conditions,Clouds,dailyrainin,SolarRadiationWatts/m^2,SoftwareType,DateUTC
2013-03-06 00:03:00,42.4,24.6,30.33,NNW,348,6.0,8.9,49,0.00,,,0.00,0.0,meteobridge,2013-03-06 06:03:00,
2013-03-06 00:08:00,42.4,24.6,30.33,NNW,345,4.0,8.9,49,0.00,,,0.00,0.0,meteobridge,2013-03-06 06:08:00,
2013-03-06 00:13:00,42.3,25.0,30.33,North,349,4.0,6.9,50,0.00,,,0.00,0.0,meteobridge,2013-03-06 06:13:00,
2013-03-06 00:18:00,41.9,24.6,30.34,North,355,2.0,4.0,50,0.00,,,0.00,0.0,meteobridge,2013-03-06 06:18:00,
2013-03-06 00:23:00,41.5,24.8,30.34,NNW,348,4.0,6.0,51,0.00,,,0.00,0.0,meteobridge,2013-03-06 06:23:00,
2013-03-06 00:28:00,41.5,24.8,30.33,North,349,4.0,6.9,51,0.00,,,0.00,0.0,meteobridge,2013-03-06 06:28:00,
2013-03-06 00:33:00,41.5,24.8,30.33,NNW,348,4.0,6.0,51,0.00,,,0.00,0.0,meteobridge,2013-03-06 06:33:00,
2013-03-06 00:38:00,41.5,24.8,30.34,NNW,338,4.9,6.9,51,0.00,,,0.00,0.0,meteobridge,2013-03-06 06:38:00,
2013-03-06 00:43:00,41.5,24.8,30.34,North,350,4.9,6.9,51,0.00,,,0.00,0.0,meteobridge,2013-03-06 06:43:00,
2013-03-06 00:48:00,41.2,24.8,30.34,North,350,2.0,6.0,52,0.00,,,0.00,0.0,meteobridge,2013-03-06 06:48:00,
2013-03-06 00:53:00,40.8,25.0,30.34,North,351,4.0,4.0,53,0.00,,,0.00,0.0,meteobridge,2013-03-06 06:53:00,
2013-03-06 00:58:00,40.5,24.6,30.35,North,351,0.9,4.0,53,0.00,,,0.00,0.0,meteobridge,2013-03-06 06:58:00,
2013-03-06 01:03:00,39.9,24.6,30.35,North,350,2.0,2.0,54,0.00,,,0.00,0.0,meteobridge,2013-03-06 07:03:00,
2013-03-06 01:09:00,39.6,24.8,30.35,North,350,2.9,4.0,55,0.00,,,0.00,0.0,meteobridge,2013-03-06 07:09:00,
2013-03-06 01:14:00,39.7,25.0,30.35,North,355,2.9,4.9,55,0.00,,,0.00,0.0,meteobridge,2013-03-06 07:14:00,
2013-03-06 01:19:00,39.7,25.0,30.35,North,355,6.0,6.9,55,0.00,,,0.00,0.0,meteobridge,2013-03-06 07:19:00,
2013-03-06 01:24:00,39.9,24.6,30.35,North,355,2.9,4.9,54,0.00,,,0.00,0.0,meteobridge,2013-03-06 07:24:00,
2013-03-06 01:29:00,39.9,24.6,30.35,North,351,2.9,4.9,54,0.00,,,0.00,0.0,meteobridge,2013-03-06 07:29:00,
2013-03-06 01:34:00,39.9,24.6,30.35,North,355,4.9,4.9,54,0.00,,,0.00,0.0,meteobridge,2013-03-06 07:34:00,
2013-03-06 01:39:00,39.7,25.0,30.35,NNW,348,6.0,6.9,55,0.00,,,0.00,0.0,meteobridge,2013-03-06 07:39:00,
2013-03-06 01:44:00,39.6,25.2,30.34,North,355,4.9,6.0,56,0.00,,,0.00,0.0,meteobridge,2013-03-06 07:44:00,
2013-03-06 01:49:00,38.8,25.0,30.34,North,355,6.0,6.0,57,0.00,,,0.00,0.0,meteobridge,2013-03-06 07:49:00,
2013-03-06 01:54:00,38.7,24.8,30.35,North,349,6.0,6.9,57,0.00,,,0.00,0.0,meteobridge,2013-03-06 07:54:00,
2013-03-06 01:59:00,38.8,25.0,30.35,North,355,6.0,10.1,57,0.00,,,0.00,0.0,meteobridge,2013-03-06 07:59:00,
2013-03-06 02:04:00,39.0,25.2,30.35,North,351,6.0,10.1,57,0.00,,,0.00,0.0,meteobridge,2013-03-06 08:04:00,
2013-03-06 02:10:00,39.2,25.2,30.35,NNW,348,4.9,8.9,57,0.00,,,0.00,0.0,meteobridge,2013-03-06 08:10:00,
2013-03-06 02:15:00,39.0,25.2,30.35,NNW,345,6.0,8.9,57,0.00,,,0.00,0.0,meteobridge,2013-03-06 08:15:00,
2013-03-06 02:20:00,39.0,25.2,30.35,North,350,6.0,8.9,57,0.00,,,0.00,0.0,meteobridge,2013-03-06 08:20:00,
2013-03-06 02:25:00,38.8,25.0,30.35,North,355,6.9,6.9,57,0.00,,,0.00,0.0,meteobridge,2013-03-06 08:25:00,
2013-03-06 02:30:00,38.8,25.0,30.35,North,349,2.9,6.9,57,0.00,,,0.00,0.0,meteobridge,2013-03-06 08:30:00,
2013-03-06 02:35:00,38.7,25.2,30.35,North,355,4.0,6.9,58,0.00,,,0.00,0.0,meteobridge,2013-03-06 08:35:00,
2013-03-06 02:40:00,38.5,25.0,30.35,North,351,4.9,6.9,58,0.00,,,0.00,0.0,meteobridge,2013-03-06 08:40:00,
2013-03-06 02:45:00,38.3,24.8,30.35,North,355,4.9,6.9,58,0.00,,,0.00,0.0,meteobridge,2013-03-06 08:45:00,
2013-03-06 02:50:00,38.3,24.8,30.35,North,355,4.9,8.1,58,0.00,,,0.00,0.0,meteobridge,2013-03-06 08:50:00,
2013-03-06 02:55:00,38.3,25.2,30.34,North,351,6.0,8.9,59,0.00,,,0.00,0.0,meteobridge,2013-03-06 08:55:00,
2013-03-06 03:00:00,38.3,25.2,30.34,North,355,6.9,8.9,59,0.00,,,0.00,0.0,meteobridge,2013-03-06 09:00:00,
2013-03-06 03:05:00,38.3,25.2,30.34,North,355,4.0,8.9,59,0.00,,,0.00,0.0,meteobridge,2013-03-06 09:05:00,
2013-03-06 03:11:00,38.1,25.0,30.34,NNW,346,2.9,4.9,59,0.00,,,0.00,0.0,meteobridge,2013-03-06 09:11:00,
2013-03-06 03:16:00,37.9,25.0,30.34,North,351,2.9,6.0,59,0.00,,,0.00,0.0,meteobridge,2013-03-06 09:16:00,
2013-03-06 03:21:00,37.8,25.2,30.34,North,355,2.9,8.9,60,0.00,,,0.00,0.0,meteobridge,2013-03-06 09:21:00,
2013-03-06 03:26:00,37.6,25.0,30.34,North,355,4.0,6.9,60,0.00,,,0.00,0.0,meteobridge,2013-03-06 09:26:00,
2013-03-06 03:31:00,37.4,24.8,30.34,NNW,346,2.0,4.9,60,0.00,,,0.00,0.0,meteobridge,2013-03-06 09:31:00,
2013-03-06 03:36:00,37.0,24.8,30.34,North,0,2.9,6.9,61,0.00,,,0.00,0.0,meteobridge,2013-03-06 09:36:00,
2013-03-06 03:41:00,36.9,24.6,30.34,North,0,2.0,2.9,61,0.00,,,0.00,0.0,meteobridge,2013-03-06 09:41:00,
2013-03-06 03:46:00,36.7,25.0,30.34,North,0,2.9,4.9,62,0.00,,,0.00,0.0,meteobridge,2013-03-06 09:46:00,
2013-03-06 03:51:00,36.7,25.0,30.34,North,355,4.0,4.9,62,0.00,,,0.00,0.0,meteobridge,2013-03-06 09:51:00,
2013-03-06 03:56:00,36.7,25.0,30.34,North,350,4.9,6.0,62,0.00,,,0.00,0.0,meteobridge,2013-03-06 09:56:00,
2013-03-06 04:01:00,36.7,25.0,30.34,North,350,6.0,6.9,62,0.00,,,0.00,0.0,meteobridge,2013-03-06 10:01:00,
2013-03-06 04:07:00,36.7,25.0,30.35,North,350,4.0,6.0,62,0.00,,,0.00,0.0,meteobridge,2013-03-06 10:07:00,
2013-03-06 04:12:00,36.3,25.0,30.35,North,355,4.0,6.0,63,0.00,,,0.00,0.0,meteobridge,2013-03-06 10:12:00,
2013-03-06 04:17:00,36.3,25.0,30.35,North,350,4.9,6.0,63,0.00,,,0.00,0.0,meteobridge,2013-03-06 10:17:00,
2013-03-06 04:22:00,36.1,24.8,30.35,North,350,4.0,4.0,63,0.00,,,0.00,0.0,meteobridge,2013-03-06 10:22:00,
2013-03-06 04:27:00,36.0,24.6,30.35,North,350,4.0,4.0,63,0.00,,,0.00,0.0,meteobridge,2013-03-06 10:27:00,
2013-03-06 04:32:00,36.0,24.6,30.35,North,350,0.9,4.0,63,0.00,,,0.00,0.0,meteobridge,2013-03-06 10:32:00,
2013-03-06 04:37:00,35.8,24.4,30.35,North,351,2.0,4.0,63,0.00,,,0.00,0.0,meteobridge,2013-03-06 10:37:00,
2013-03-06 04:42:00,34.3,23.4,30.35,North,351,2.9,4.9,64,0.00,,,0.00,0.0,meteobridge,2013-03-06 10:42:00,
2013-03-06 04:47:00,34.3,24.1,30.35,North,350,4.9,6.0,66,0.00,,,0.00,0.0,meteobridge,2013-03-06 10:47:00,
2013-03-06 04:52:00,34.9,24.6,30.35,North,350,4.9,6.0,66,0.00,,,0.00,0.0,meteobridge,2013-03-06 10:52:00,
2013-03-06 04:57:00,34.7,24.4,30.35,North,350,4.0,4.9,66,0.00,,,0.00,0.0,meteobridge,2013-03-06 10:57:00,
2013-03-06 05:02:00,34.3,24.1,30.35,North,355,4.0,6.9,66,0.00,,,0.00,0.0,meteobridge,2013-03-06 11:02:00,
2013-03-06 05:07:00,34.3,24.1,30.35,North,355,4.9,4.9,66,0.00,,,0.00,0.0,meteobridge,2013-03-06 11:07:00,
2013-03-06 05:12:00,34.3,24.1,30.35,North,0,4.0,4.9,66,0.00,,,0.00,0.0,meteobridge,2013-03-06 11:12:00,
2013-03-06 05:17:00,34.2,24.1,30.35,North,0,2.9,4.9,66,0.00,,,0.00,0.0,meteobridge,2013-03-06 11:17:00,
2013-03-06 05:23:00,34.3,24.4,30.35,North,0,4.9,6.0,67,0.00,,,0.00,0.0,meteobridge,2013-03-06 11:23:00,
2013-03-06 05:28:00,34.5,24.6,30.35,North,355,2.9,6.0,67,0.00,,,0.00,0.0,meteobridge,2013-03-06 11:28:00,
2013-03-06 05:33:00,34.5,24.3,30.36,North,355,4.0,4.0,66,0.00,,,0.00,0.0,meteobridge,2013-03-06 11:33:00,
2013-03-06 05:38:00,34.3,24.1,30.36,North,355,4.0,4.9,66,0.00,,,0.00,0.0,meteobridge,2013-03-06 11:38:00,
2013-03-06 05:43:00,34.3,24.4,30.36,North,355,6.0,6.9,67,0.00,,,0.00,0.0,meteobridge,2013-03-06 11:43:00,
2013-03-06 05:48:00,34.3,24.4,30.37,North,355,2.0,4.0,67,0.00,,,0.00,0.0,meteobridge,2013-03-06 11:48:00,
2013-03-06 05:53:00,34.0,23.9,30.37,North,355,2.9,4.0,66,0.00,,,0.00,0.0,meteobridge,2013-03-06 11:53:00,
2013-03-06 05:58:00,33.6,23.9,30.37,North,355,4.0,4.0,67,0.00,,,0.00,0.0,meteobridge,2013-03-06 11:58:00,
2013-03-06 06:03:00,33.6,23.9,30.37,NNE,17,4.0,4.9,67,0.00,,,0.00,0.0,meteobridge,2013-03-06 12:03:00,
2013-03-06 06:09:00,34.0,24.6,30.37,North,0,4.9,10.1,68,0.00,,,0.00,0.0,meteobridge,2013-03-06 12:09:00,
2013-03-06 06:14:00,34.2,24.6,30.37,NNE,29,6.0,6.9,68,0.00,,,0.00,0.0,meteobridge,2013-03-06 12:14:00,
2013-03-06 06:19:00,34.3,24.4,30.37,NNE,30,4.9,6.0,67,0.00,,,0.00,0.0,meteobridge,2013-03-06 12:19:00,
2013-03-06 06:24:00,34.2,24.4,30.37,NNE,32,2.0,2.0,67,0.00,,,0.00,0.0,meteobridge,2013-03-06 12:24:00,
2013-03-06 06:29:00,34.2,24.4,30.37,NNE,29,0.9,2.9,67,0.00,,,0.00,0.0,meteobridge,2013-03-06 12:29:00,
2013-03-06 06:34:00,33.6,23.9,30.38,NNE,29,2.0,2.9,67,0.00,,,0.00,0.0,meteobridge,2013-03-06 12:34:00,
2013-03-06 06:39:00,33.3,23.9,30.38,NNE,29,0.0,2.0,68,0.00,,,0.00,0.0,meteobridge,2013-03-06 12:39:00,
2013-03-06 06:44:00,33.4,24.1,30.38,NNE,29,0.0,0.0,68,0.00,,,0.00,5.0,meteobridge,2013-03-06 12:44:00,
2013-03-06 06:50:00,33.8,24.8,30.39,NNE,29,0.0,0.0,69,0.00,,,0.00,7.0,meteobridge,2013-03-06 12:50:00,
2013-03-06 06:55:00,33.8,24.4,30.39,NNE,29,0.0,0.0,68,0.00,,,0.00,14.0,meteobridge,2013-03-06 12:55:00,
2013-03-06 07:00:00,33.8,24.4,30.39,NNE,29,0.0,0.0,68,0.00,,,0.00,19.0,meteobridge,2013-03-06 13:00:00,
2013-03-06 07:05:00,34.0,24.8,30.40,NNE,29,0.0,0.0,69,0.00,,,0.00,23.0,meteobridge,2013-03-06 13:05:00,
2013-03-06 07:10:00,34.3,24.8,30.40,NNE,29,0.0,0.9,68,0.00,,,0.00,32.0,meteobridge,2013-03-06 13:10:00,
2013-03-06 07:15:00,33.6,24.6,30.40,NNE,29,0.0,0.0,69,0.00,,,0.00,62.0,meteobridge,2013-03-06 13:15:00,
2013-03-06 07:20:00,34.0,25.2,30.40,NNE,29,0.0,0.0,70,0.00,,,0.00,76.0,meteobridge,2013-03-06 13:20:00,
2013-03-06 07:26:00,34.3,25.5,30.40,NNE,29,0.0,2.0,70,0.00,,,0.00,98.0,meteobridge,2013-03-06 13:26:00,
2013-03-06 07:31:00,35.2,26.1,30.40,NNE,29,0.0,2.0,69,0.00,,,0.00,118.0,meteobridge,2013-03-06 13:31:00,
2013-03-06 07:36:00,36.0,26.4,30.40,NNE,29,2.0,2.9,68,0.00,,,0.00,135.0,meteobridge,2013-03-06 13:36:00,
2013-03-06 07:41:00,36.7,26.4,30.40,NNE,29,2.0,2.9,66,0.00,,,0.00,151.0,meteobridge,2013-03-06 13:41:00,
2013-03-06 07:46:00,37.2,26.6,30.41,NNE,29,0.9,2.9,65,0.00,,,0.00,171.0,meteobridge,2013-03-06 13:46:00,
2013-03-06 07:51:00,37.2,26.2,30.41,NNE,29,0.9,2.0,64,0.00,,,0.00,190.0,meteobridge,2013-03-06 13:51:00,
2013-03-06 07:56:00,37.8,26.6,30.41,NNE,29,2.0,2.0,64,0.00,,,0.00,206.0,meteobridge,2013-03-06 13:56:00,
2013-03-06 08:01:00,37.9,26.8,30.42,NNE,29,0.9,0.9,64,0.00,,,0.00,207.0,meteobridge,2013-03-06 14:01:00,
2013-03-06 08:06:00,38.7,26.8,30.42,North,355,4.0,4.9,62,0.00,,,0.00,236.0,meteobridge,2013-03-06 14:06:00,
2013-03-06 08:12:00,38.8,26.1,30.42,North,355,4.0,4.9,60,0.00,,,0.00,257.0,meteobridge,2013-03-06 14:12:00,
2013-03-06 08:17:00,39.4,26.6,30.42,North,355,4.0,6.0,60,0.00,,,0.00,276.0,meteobridge,2013-03-06 14:17:00,
2013-03-06 08:22:00,39.6,26.4,30.42,NNE,25,2.0,6.0,59,0.00,,,0.00,294.0,meteobridge,2013-03-06 14:22:00,
2013-03-06 08:27:00,40.3,27.1,30.43,North,5,2.9,6.0,59,0.00,,,0.00,311.0,meteobridge,2013-03-06 14:27:00,
2013-03-06 08:32:00,40.5,26.8,30.43,North,0,2.9,4.9,58,0.00,,,0.00,330.0,meteobridge,2013-03-06 14:32:00,
2013-03-06 08:37:00,40.6,27.0,30.43,NNE,15,4.0,6.9,58,0.00,,,0.00,350.0,meteobridge,2013-03-06 14:37:00,
2013-03-06 08:42:00,41.2,26.6,30.43,NNE,26,2.9,8.1,56,0.00,,,0.00,369.0,meteobridge,2013-03-06 14:42:00,
2013-03-06 08:47:00,42.1,27.5,30.43,NE,39,10.1,12.1,56,0.00,,,0.00,387.0,meteobridge,2013-03-06 14:47:00,
2013-03-06 08:52:00,42.6,26.6,30.43,NNE,22,6.9,15.0,53,0.00,,,0.00,406.0,meteobridge,2013-03-06 14:52:00,
2013-03-06 08:57:00,42.8,25.9,30.43,North,0,4.9,17.0,51,0.00,,,0.00,424.0,meteobridge,2013-03-06 14:57:00,
2013-03-06 09:02:00,43.2,26.2,30.43,NNE,30,10.1,12.1,51,0.00,,,0.00,443.0,meteobridge,2013-03-06 15:02:00,
2013-03-06 09:07:00,43.3,25.9,30.43,NNE,23,8.1,13.0,50,0.00,,,0.00,455.0,meteobridge,2013-03-06 15:07:00,
2013-03-06 09:12:00,44.1,26.6,30.43,NNE,13,8.9,12.1,50,0.00,,,0.00,473.0,meteobridge,2013-03-06 15:12:00,
2013-03-06 09:17:00,44.4,25.9,30.43,NNW,341,4.9,10.1,48,0.00,,,0.00,490.0,meteobridge,2013-03-06 15:17:00,
2013-03-06 09:23:00,44.4,26.4,30.43,NNE,19,8.1,10.1,49,0.00,,,0.00,508.0,meteobridge,2013-03-06 15:23:00,
2013-03-06 09:28:00,44.8,26.2,30.43,North,5,4.0,6.0,48,0.00,,,0.00,524.0,meteobridge,2013-03-06 15:28:00,
2013-03-06 09:33:00,45.1,26.6,30.43,NE,36,6.9,6.9,48,0.00,,,0.00,543.0,meteobridge,2013-03-06 15:33:00,
2013-03-06 09:38:00,45.3,26.2,30.43,North,9,6.0,8.9,47,0.00,,,0.00,559.0,meteobridge,2013-03-06 15:38:00,
2013-03-06 09:43:00,46.2,27.1,30.42,NE,41,6.0,6.0,47,0.00,,,0.00,577.0,meteobridge,2013-03-06 15:43:00,
2013-03-06 09:48:00,46.8,27.1,30.42,North,355,6.0,8.9,46,0.00,,,0.00,594.0,meteobridge,2013-03-06 15:48:00,
2013-03-06 09:53:00,46.6,27.0,30.42,North,5,0.9,6.0,46,0.00,,,0.00,603.0,meteobridge,2013-03-06 15:53:00,
2013-03-06 09:58:00,46.2,26.1,30.42,NNW,327,2.9,10.1,45,0.00,,,0.00,619.0,meteobridge,2013-03-06 15:58:00,
2013-03-06 10:03:00,46.9,27.3,30.42,NNE,32,8.1,8.1,46,0.00,,,0.00,628.0,meteobridge,2013-03-06 16:03:00,
2013-03-06 10:08:00,47.1,26.8,30.42,NE,41,6.0,6.9,45,0.00,,,0.00,649.0,meteobridge,2013-03-06 16:08:00,
2013-03-06 10:13:00,47.3,26.4,30.42,NNW,346,2.0,10.1,44,0.00,,,0.00,664.0,meteobridge,2013-03-06 16:13:00,
2013-03-06 10:18:00,47.7,27.9,30.42,NE,41,8.1,10.1,46,0.00,,,0.00,684.0,meteobridge,2013-03-06 16:18:00,
2013-03-06 10:23:00,48.4,27.0,30.42,NE,36,4.9,11.0,43,0.00,,,0.00,710.0,meteobridge,2013-03-06 16:23:00,
2013-03-06 10:28:00,48.6,26.4,30.41,North,0,8.9,11.0,42,0.00,,,0.00,737.0,meteobridge,2013-03-06 16:28:00,
2013-03-06 10:34:00,48.4,26.4,30.41,North,9,4.0,11.0,42,0.00,,,0.00,737.0,meteobridge,2013-03-06 16:34:00,
2013-03-06 10:39:00,48.2,27.3,30.41,North,0,6.9,8.9,44,0.00,,,0.00,659.0,meteobridge,2013-03-06 16:39:00,
2013-03-06 10:44:00,50.0,28.4,30.40,NNW,342,6.0,8.9,43,0.00,,,0.00,765.0,meteobridge,2013-03-06 16:44:00,
2013-03-06 10:49:00,50.5,28.2,30.40,NNE,24,8.1,10.1,42,0.00,,,0.00,782.0,meteobridge,2013-03-06 16:49:00,
2013-03-06 10:54:00,50.4,27.5,30.40,NE,55,6.0,11.0,41,0.00,,,0.00,809.0,meteobridge,2013-03-06 16:54:00,
2013-03-06 10:59:00,50.2,26.8,30.40,ESE,103,0.9,6.0,40,0.00,,,0.00,666.0,meteobridge,2013-03-06 16:59:00,
2013-03-06 11:04:00,51.3,27.7,30.40,ENE,62,2.9,4.9,40,0.00,,,0.00,714.0,meteobridge,2013-03-06 17:04:00,
2013-03-06 11:09:00,51.6,27.5,30.39,ENE,74,4.9,6.0,39,0.00,,,0.00,805.0,meteobridge,2013-03-06 17:09:00,
2013-03-06 11:14:00,51.6,27.5,30.39,ESE,115,0.9,4.9,39,0.00,,,0.00,840.0,meteobridge,2013-03-06 17:14:00,
2013-03-06 11:19:00,52.7,28.4,30.39,North,355,6.0,11.0,39,0.00,,,0.00,735.0,meteobridge,2013-03-06 17:19:00,
2013-03-06 11:24:00,51.4,28.6,30.39,ENE,77,2.9,4.0,41,0.00,,,0.00,854.0,meteobridge,2013-03-06 17:24:00,
2013-03-06 11:29:00,52.5,28.9,30.39,NNE,30,2.9,6.0,40,0.00,,,0.00,868.0,meteobridge,2013-03-06 17:29:00,
2013-03-06 11:34:00,53.1,29.3,30.39,ESE,109,2.0,4.9,40,0.00,,,0.00,731.0,meteobridge,2013-03-06 17:34:00,
2013-03-06 11:39:00,52.7,29.1,30.39,ESE,110,2.0,6.9,40,0.00,,,0.00,705.0,meteobridge,2013-03-06 17:39:00,
2013-03-06 11:45:00,53.4,29.7,30.39,ENE,75,4.9,4.9,40,0.00,,,0.00,710.0,meteobridge,2013-03-06 17:45:00,
2013-03-06 11:50:00,52.7,27.9,30.38,ESE,121,2.0,6.0,38,0.00,,,0.00,649.0,meteobridge,2013-03-06 17:50:00,
2013-03-06 11:55:00,52.0,28.4,30.38,South,173,4.0,6.9,40,0.00,,,0.00,719.0,meteobridge,2013-03-06 17:55:00,
2013-03-06 12:00:00,52.3,28.0,30.38,ESE,107,2.9,6.9,39,0.00,,,0.00,626.0,meteobridge,2013-03-06 18:00:00,
2013-03-06 12:05:00,52.2,27.3,30.38,SE,127,0.0,4.9,38,0.00,,,0.00,612.0,meteobridge,2013-03-06 18:05:00,
2013-03-06 12:10:00,52.2,28.6,30.37,SE,132,6.9,10.1,40,0.00,,,0.00,726.0,meteobridge,2013-03-06 18:10:00,
2013-03-06 12:15:00,52.9,29.3,30.37,NE,46,2.9,6.0,40,0.00,,,0.00,599.0,meteobridge,2013-03-06 18:15:00,
2013-03-06 12:20:00,53.4,28.4,30.37,East,98,0.0,6.0,38,0.00,,,0.00,893.0,meteobridge,2013-03-06 18:20:00,
2013-03-06 12:25:00,54.3,29.3,30.36,ESE,103,0.0,2.9,38,0.00,,,0.00,874.0,meteobridge,2013-03-06 18:25:00,
2013-03-06 12:30:00,54.3,29.8,30.36,NE,55,0.9,2.0,39,0.00,,,0.00,875.0,meteobridge,2013-03-06 18:30:00,
2013-03-06 12:35:00,54.0,29.5,30.35,ENE,69,4.0,4.9,39,0.00,,,0.00,851.0,meteobridge,2013-03-06 18:35:00,
2013-03-06 12:40:00,54.7,28.2,30.35,SSW,198,4.9,6.9,36,0.00,,,0.00,879.0,meteobridge,2013-03-06 18:40:00,
2013-03-06 12:45:00,53.8,28.0,30.35,SSE,163,0.0,4.9,37,0.00,,,0.00,882.0,meteobridge,2013-03-06 18:45:00,
2013-03-06 12:50:00,53.4,29.1,30.35,SSW,192,0.0,4.0,39,0.00,,,0.00,888.0,meteobridge,2013-03-06 18:50:00,
2013-03-06 12:55:00,54.1,27.7,30.34,WSW,244,2.0,6.0,36,0.00,,,0.00,835.0,meteobridge,2013-03-06 18:55:00,
2013-03-06 13:00:00,54.0,28.2,30.34,SW,217,0.0,2.9,37,0.00,,,0.00,914.0,meteobridge,2013-03-06 19:00:00,
2013-03-06 13:05:00,54.7,28.9,30.34,SW,223,0.9,4.0,37,0.00,,,0.00,896.0,meteobridge,2013-03-06 19:05:00,
2013-03-06 13:10:00,55.8,31.1,30.33,South,172,6.0,6.9,39,0.00,,,0.00,888.0,meteobridge,2013-03-06 19:10:00,
2013-03-06 13:16:00,55.6,29.7,30.33,SE,144,4.0,6.0,37,0.00,,,0.00,884.0,meteobridge,2013-03-06 19:16:00,
2013-03-06 13:21:00,55.9,29.3,30.33,South,171,4.0,6.0,36,0.00,,,0.00,877.0,meteobridge,2013-03-06 19:21:00,
2013-03-06 13:26:00,56.7,30.7,30.32,SSW,202,2.9,4.9,37,0.00,,,0.00,882.0,meteobridge,2013-03-06 19:26:00,
2013-03-06 13:31:00,56.1,28.8,30.32,SW,217,2.9,2.9,35,0.00,,,0.00,881.0,meteobridge,2013-03-06 19:31:00,
2013-03-06 13:36:00,57.2,30.6,30.32,NNE,18,0.0,8.9,36,0.00,,,0.00,747.0,meteobridge,2013-03-06 19:36:00,
2013-03-06 13:41:00,57.4,28.6,30.32,NNW,338,6.9,11.0,33,0.00,,,0.00,872.0,meteobridge,2013-03-06 19:41:00,
2013-03-06 13:46:00,57.9,29.7,30.31,WNW,294,0.9,4.0,34,0.00,,,0.00,872.0,meteobridge,2013-03-06 19:46:00,
2013-03-06 13:51:00,57.9,26.6,30.31,WNW,295,2.9,4.9,30,0.00,,,0.00,805.0,meteobridge,2013-03-06 19:51:00,
2013-03-06 13:56:00,57.9,26.6,30.31,WNW,294,2.0,2.9,30,0.00,,,0.00,853.0,meteobridge,2013-03-06 19:56:00,
2013-03-06 14:01:00,57.4,27.7,30.30,WNW,285,2.9,2.9,32,0.00,,,0.00,849.0,meteobridge,2013-03-06 20:01:00,
2013-03-06 14:06:00,57.7,26.4,30.29,West,281,0.0,6.0,30,0.00,,,0.00,835.0,meteobridge,2013-03-06 20:06:00,
2013-03-06 14:12:00,58.5,25.5,30.29,North,350,4.9,10.1,28,0.00,,,0.00,830.0,meteobridge,2013-03-06 20:12:00,
2013-03-06 14:17:00,58.5,26.2,30.29,NNW,341,0.0,4.9,29,0.00,,,0.00,817.0,meteobridge,2013-03-06 20:17:00,
2013-03-06 14:22:00,59.2,27.0,30.29,North,355,2.9,8.1,29,0.00,,,0.00,807.0,meteobridge,2013-03-06 20:22:00,
2013-03-06 14:27:00,59.0,25.0,30.28,NNW,348,0.9,4.0,27,0.00,,,0.00,795.0,meteobridge,2013-03-06 20:27:00,
2013-03-06 14:32:00,59.5,26.4,30.28,NNW,331,4.0,4.0,28,0.00,,,0.00,780.0,meteobridge,2013-03-06 20:32:00,
2013-03-06 14:37:00,59.5,25.5,30.27,NNW,337,6.0,6.0,27,0.00,,,0.00,773.0,meteobridge,2013-03-06 20:37:00,
2013-03-06 14:42:00,59.4,26.2,30.27,NW,311,2.9,6.0,28,0.00,,,0.00,735.0,meteobridge,2013-03-06 20:42:00,
2013-03-06 14:47:00,59.7,28.9,30.27,East,96,2.0,6.0,31,0.00,,,0.00,752.0,meteobridge,2013-03-06 20:47:00,
2013-03-06 14:52:00,59.5,28.0,30.27,SSE,150,2.9,6.9,30,0.00,,,0.00,735.0,meteobridge,2013-03-06 20:52:00,
2013-03-06 14:57:00,59.7,28.2,30.27,SW,223,0.9,4.9,30,0.00,,,0.00,714.0,meteobridge,2013-03-06 20:57:00,
2013-03-06 15:02:00,61.2,27.9,30.27,SSW,213,0.0,2.0,28,0.00,,,0.00,714.0,meteobridge,2013-03-06 21:02:00,
2013-03-06 15:07:00,61.5,29.8,30.26,ESE,122,2.9,4.0,30,0.00,,,0.00,661.0,meteobridge,2013-03-06 21:07:00,
2013-03-06 15:13:00,61.9,30.0,30.26,NE,51,2.0,4.0,30,0.00,,,0.00,687.0,meteobridge,2013-03-06 21:13:00,
2013-03-06 15:18:00,61.9,29.3,30.26,East,84,2.0,4.0,29,0.00,,,0.00,729.0,meteobridge,2013-03-06 21:18:00,
2013-03-06 15:23:00,62.1,27.7,30.26,NE,40,2.9,10.1,27,0.00,,,0.00,689.0,meteobridge,2013-03-06 21:23:00,
2013-03-06 15:28:00,61.0,25.9,30.26,NNW,342,4.0,6.0,26,0.00,,,0.00,512.0,meteobridge,2013-03-06 21:28:00,
2013-03-06 15:33:00,60.4,25.3,30.25,SSW,206,0.0,4.9,26,0.00,,,0.00,619.0,meteobridge,2013-03-06 21:33:00,
2013-03-06 15:38:00,62.1,27.7,30.25,NE,44,2.0,8.9,27,0.00,,,0.00,650.0,meteobridge,2013-03-06 21:38:00,
2013-03-06 15:43:00,62.8,30.9,30.24,NE,54,4.0,4.9,30,0.00,,,0.00,554.0,meteobridge,2013-03-06 21:43:00,
2013-03-06 15:48:00,62.2,29.7,30.24,East,90,2.0,6.0,29,0.00,,,0.00,564.0,meteobridge,2013-03-06 21:48:00,
2013-03-06 15:53:00,61.7,29.1,30.24,ESE,114,2.0,11.0,29,0.00,,,0.00,357.0,meteobridge,2013-03-06 21:53:00,
2013-03-06 15:58:00,61.0,28.6,30.24,ESE,105,2.0,4.9,29,0.00,,,0.00,403.0,meteobridge,2013-03-06 21:58:00,
2013-03-06 16:04:00,61.5,28.9,30.24,ENE,72,4.0,6.0,29,0.00,,,0.00,594.0,meteobridge,2013-03-06 22:04:00,
2013-03-06 16:09:00,61.0,27.7,30.24,ESE,103,4.0,4.0,28,0.00,,,0.00,223.0,meteobridge,2013-03-06 22:09:00,
2013-03-06 16:14:00,59.7,26.6,30.24,East,81,0.0,2.0,28,0.00,,,0.00,169.0,meteobridge,2013-03-06 22:14:00,
2013-03-06 16:19:00,59.4,27.1,30.23,East,88,0.0,2.9,29,0.00,,,0.00,183.0,meteobridge,2013-03-06 22:19:00,
2013-03-06 16:24:00,59.0,29.1,30.23,East,88,2.0,4.0,32,0.00,,,0.00,165.0,meteobridge,2013-03-06 22:24:00,
2013-03-06 16:29:00,58.6,28.9,30.23,East,97,0.9,2.0,32,0.00,,,0.00,144.0,meteobridge,2013-03-06 22:29:00,
2013-03-06 16:34:00,58.5,28.8,30.23,East,90,0.0,2.0,32,0.00,,,0.00,137.0,meteobridge,2013-03-06 22:34:00,
2013-03-06 16:39:00,58.5,28.8,30.23,East,96,0.9,2.9,32,0.00,,,0.00,130.0,meteobridge,2013-03-06 22:39:00,
2013-03-06 16:44:00,58.5,28.8,30.23,East,98,2.9,2.9,32,0.00,,,0.00,127.0,meteobridge,2013-03-06 22:44:00,
2013-03-06 16:49:00,58.5,29.5,30.23,East,92,0.0,2.9,33,0.00,,,0.00,121.0,meteobridge,2013-03-06 22:49:00,
2013-03-06 16:54:00,58.3,27.9,30.23,East,90,0.9,2.9,31,0.00,,,0.00,114.0,meteobridge,2013-03-06 22:54:00,
2013-03-06 16:59:00,58.1,28.4,30.23,East,92,2.0,2.0,32,0.00,,,0.00,111.0,meteobridge,2013-03-06 22:59:00,
2013-03-06 17:04:00,57.9,27.5,30.22,East,96,0.9,2.9,31,0.00,,,0.00,95.0,meteobridge,2013-03-06 23:04:00,
2013-03-06 17:09:00,57.7,28.0,30.22,East,96,0.9,2.9,32,0.00,,,0.00,81.0,meteobridge,2013-03-06 23:09:00,
2013-03-06 17:15:00,57.6,28.6,30.22,East,95,0.0,2.0,33,0.00,,,0.00,70.0,meteobridge,2013-03-06 23:15:00,
2013-03-06 17:20:00,57.4,27.7,30.21,ESE,103,2.9,2.9,32,0.00,,,0.00,67.0,meteobridge,2013-03-06 23:20:00,
2013-03-06 17:25:00,57.0,28.9,30.21,ESE,103,0.0,2.9,34,0.00,,,0.00,63.0,meteobridge,2013-03-06 23:25:00,
2013-03-06 17:30:00,56.8,30.9,30.21,ESE,105,2.0,2.9,37,0.00,,,0.00,49.0,meteobridge,2013-03-06 23:30:00,
2013-03-06 17:35:00,56.7,30.7,30.21,ESE,106,2.9,2.9,37,0.00,,,0.00,39.0,meteobridge,2013-03-06 23:35:00,
2013-03-06 17:40:00,56.1,31.5,30.21,ESE,107,0.0,2.0,39,0.00,,,0.00,37.0,meteobridge,2013-03-06 23:40:00,
2013-03-06 17:45:00,55.9,32.0,30.21,ESE,107,0.0,0.0,40,0.00,,,0.00,33.0,meteobridge,2013-03-06 23:45:00,
2013-03-06 17:51:00,55.6,32.2,30.21,ESE,107,0.0,0.9,41,0.00,,,0.00,30.0,meteobridge,2013-03-06 23:51:00,
2013-03-06 17:56:00,55.2,32.0,30.21,ESE,107,0.0,0.9,41,0.00,,,0.00,28.0,meteobridge,2013-03-06 23:56:00,
2013-03-06 18:01:00,55.0,31.1,30.21,ESE,107,0.0,0.0,40,0.00,,,0.00,25.0,meteobridge,2013-03-07 00:01:00,
2013-03-06 18:06:00,55.0,31.8,30.21,ESE,107,0.0,0.0,41,0.00,,,0.00,21.0,meteobridge,2013-03-07 00:06:00,
2013-03-06 18:11:00,55.0,31.8,30.22,ESE,107,0.0,0.0,41,0.00,,,0.00,16.0,meteobridge,2013-03-07 00:11:00,
2013-03-06 18:16:00,55.0,31.8,30.22,ESE,107,0.9,0.9,41,0.00,,,0.00,11.0,meteobridge,2013-03-07 00:16:00,
2013-03-06 18:21:00,54.9,32.2,30.22,ESE,107,0.0,0.0,42,0.00,,,0.00,7.0,meteobridge,2013-03-07 00:21:00,
2013-03-06 18:26:00,54.5,33.1,30.22,ESE,107,0.0,0.0,44,0.00,,,0.00,5.0,meteobridge,2013-03-07 00:26:00,
2013-03-06 18:32:00,53.4,32.0,30.22,ESE,107,0.0,0.0,44,0.00,,,0.00,0.0,meteobridge,2013-03-07 00:32:00,
2013-03-06 18:37:00,53.1,31.6,30.22,ESE,107,0.0,0.0,44,0.00,,,0.00,0.0,meteobridge,2013-03-07 00:37:00,
2013-03-06 18:42:00,53.1,31.6,30.22,ESE,107,0.0,0.0,44,0.00,,,0.00,0.0,meteobridge,2013-03-07 00:42:00,
2013-03-06 18:47:00,53.1,31.1,30.22,ESE,107,0.0,0.0,43,0.00,,,0.00,0.0,meteobridge,2013-03-07 00:47:00,
2013-03-06 18:52:00,53.1,30.6,30.22,ESE,107,0.0,0.0,42,0.00,,,0.00,0.0,meteobridge,2013-03-07 00:52:00,
2013-03-06 18:58:00,53.4,30.9,30.22,ESE,107,0.0,0.0,42,0.00,,,0.00,0.0,meteobridge,2013-03-07 00:58:00,
2013-03-06 19:03:00,53.1,31.1,30.22,ESE,107,0.0,0.0,43,0.00,,,0.00,0.0,meteobridge,2013-03-07 01:03:00,
2013-03-06 19:08:00,52.3,30.6,30.22,ESE,107,0.0,0.0,43,0.00,,,0.00,0.0,meteobridge,2013-03-07 01:08:00,
2013-03-06 19:13:00,52.2,29.8,30.22,ESE,107,0.0,0.0,42,0.00,,,0.00,0.0,meteobridge,2013-03-07 01:13:00,
2013-03-06 19:18:00,52.5,28.9,30.22,ESE,107,0.0,0.0,40,0.00,,,0.00,0.0,meteobridge,2013-03-07 01:18:00,
2013-03-06 19:24:00,52.9,29.8,30.22,ESE,107,0.0,0.0,41,0.00,,,0.00,0.0,meteobridge,2013-03-07 01:24:00,
2013-03-06 19:29:00,52.5,30.7,30.22,ESE,107,0.0,0.0,43,0.00,,,0.00,0.0,meteobridge,2013-03-07 01:29:00,
2013-03-06 19:34:00,52.9,28.6,30.22,ESE,107,0.0,0.0,39,0.00,,,0.00,0.0,meteobridge,2013-03-07 01:34:00,
2013-03-06 19:39:00,52.9,28.0,30.22,ESE,107,0.0,2.0,38,0.00,,,0.00,0.0,meteobridge,2013-03-07 01:39:00,
2013-03-06 19:44:00,52.9,28.6,30.22,ESE,107,0.0,0.0,39,0.00,,,0.00,0.0,meteobridge,2013-03-07 01:44:00,
2013-03-06 19:49:00,52.5,28.9,30.22,ESE,107,0.0,0.0,40,0.00,,,0.00,0.0,meteobridge,2013-03-07 01:49:00,
2013-03-06 19:54:00,52.2,29.1,30.22,ESE,107,0.0,0.0,41,0.00,,,0.00,0.0,meteobridge,2013-03-07 01:54:00,
2013-03-06 20:00:00,52.0,29.7,30.22,ESE,107,0.0,0.0,42,0.00,,,0.00,0.0,meteobridge,2013-03-07 02:00:00,
2013-03-06 20:05:00,51.1,30.6,30.22,ESE,107,0.0,0.0,45,0.00,,,0.00,0.0,meteobridge,2013-03-07 02:05:00,
2013-03-06 20:10:00,50.5,30.6,30.22,ESE,107,0.0,0.0,46,0.00,,,0.00,0.0,meteobridge,2013-03-07 02:10:00,
2013-03-06 20:15:00,50.2,30.7,30.22,ESE,107,0.0,0.0,47,0.00,,,0.00,0.0,meteobridge,2013-03-07 02:15:00,
2013-03-06 20:20:00,49.8,30.9,30.22,ESE,107,2.0,2.0,48,0.00,,,0.00,0.0,meteobridge,2013-03-07 02:20:00,
2013-03-06 20:26:00,49.8,32.0,30.22,ESE,107,2.0,2.0,50,0.00,,,0.00,0.0,meteobridge,2013-03-07 02:26:00,
2013-03-06 20:31:00,49.8,30.9,30.22,ESE,107,0.0,2.0,48,0.00,,,0.00,0.0,meteobridge,2013-03-07 02:31:00,
2013-03-06 20:36:00,50.2,30.7,30.21,ESE,107,0.0,0.9,47,0.00,,,0.00,0.0,meteobridge,2013-03-07 02:36:00,
2013-03-06 20:41:00,50.0,29.5,30.21,ESE,107,0.9,2.0,45,0.00,,,0.00,0.0,meteobridge,2013-03-07 02:41:00,
2013-03-06 20:46:00,50.4,29.3,30.21,ESE,109,2.0,2.9,44,0.00,,,0.00,0.0,meteobridge,2013-03-07 02:46:00,
2013-03-06 20:51:00,50.0,30.0,30.21,ESE,115,0.0,2.0,46,0.00,,,0.00,0.0,meteobridge,2013-03-07 02:51:00,
2013-03-06 20:56:00,49.6,29.7,30.21,ESE,115,2.0,2.0,46,0.00,,,0.00,0.0,meteobridge,2013-03-07 02:56:00,
2013-03-06 21:01:00,49.3,29.3,30.21,ESE,115,2.0,2.0,46,0.00,,,0.00,0.0,meteobridge,2013-03-07 03:01:00,
2013-03-06 21:06:00,48.6,29.8,30.21,ESE,115,0.0,0.0,48,0.00,,,0.00,0.0,meteobridge,2013-03-07 03:06:00,
2013-03-06 21:11:00,48.4,30.0,30.21,ESE,115,0.0,0.9,49,0.00,,,0.00,0.0,meteobridge,2013-03-07 03:11:00,
2013-03-06 21:17:00,47.8,30.0,30.20,ESE,115,0.0,0.9,50,0.00,,,0.00,0.0,meteobridge,2013-03-07 03:17:00,
2013-03-06 21:22:00,47.7,31.8,30.20,ESE,115,0.0,0.9,54,0.00,,,0.00,0.0,meteobridge,2013-03-07 03:22:00,
2013-03-06 21:27:00,47.7,31.8,30.20,ESE,115,0.0,0.9,54,0.00,,,0.00,0.0,meteobridge,2013-03-07 03:27:00,
2013-03-06 21:32:00,48.0,31.6,30.20,ESE,115,0.0,2.0,53,0.00,,,0.00,0.0,meteobridge,2013-03-07 03:32:00,
2013-03-06 21:37:00,48.0,31.3,30.20,ESE,115,2.0,2.0,52,0.00,,,0.00,0.0,meteobridge,2013-03-07 03:37:00,
2013-03-06 21:42:00,48.4,32.5,30.20,ESE,115,2.9,2.9,54,0.00,,,0.00,0.0,meteobridge,2013-03-07 03:42:00,
2013-03-06 21:47:00,48.6,34.0,30.20,ESE,115,0.9,2.0,57,0.00,,,0.00,0.0,meteobridge,2013-03-07 03:47:00,
2013-03-06 21:52:00,48.4,35.1,30.19,SE,128,0.9,2.0,60,0.00,,,0.00,0.0,meteobridge,2013-03-07 03:52:00,
2013-03-06 21:57:00,48.0,36.0,30.20,SE,125,0.9,2.9,63,0.00,,,0.00,0.0,meteobridge,2013-03-07 03:57:00,
2013-03-06 22:02:00,47.5,36.3,30.20,SE,125,2.0,2.9,65,0.00,,,0.00,0.0,meteobridge,2013-03-07 04:02:00,
2013-03-06 22:07:00,47.1,36.7,30.20,SE,125,0.9,0.9,67,0.00,,,0.00,0.0,meteobridge,2013-03-07 04:07:00,
2013-03-06 22:12:00,47.1,37.4,30.19,SE,125,0.9,2.9,69,0.00,,,0.00,0.0,meteobridge,2013-03-07 04:12:00,
2013-03-06 22:17:00,47.1,37.8,30.19,SE,125,2.0,2.0,70,0.00,,,0.00,0.0,meteobridge,2013-03-07 04:17:00,
2013-03-06 22:22:00,47.1,38.1,30.19,SE,125,2.0,2.9,71,0.00,,,0.00,0.0,meteobridge,2013-03-07 04:22:00,
2013-03-06 22:28:00,47.3,38.3,30.19,SE,125,2.0,2.9,71,0.00,,,0.00,0.0,meteobridge,2013-03-07 04:28:00,
2013-03-06 22:33:00,46.9,37.6,30.19,ESE,119,0.9,2.0,70,0.00,,,0.00,0.0,meteobridge,2013-03-07 04:33:00,
2013-03-06 22:38:00,46.8,37.2,30.19,ESE,120,0.0,2.0,69,0.00,,,0.00,0.0,meteobridge,2013-03-07 04:38:00,
2013-03-06 22:43:00,46.2,36.7,30.19,ESE,120,0.0,0.0,69,0.00,,,0.00,0.0,meteobridge,2013-03-07 04:43:00,
2013-03-06 22:48:00,46.0,36.9,30.19,ESE,120,0.0,2.0,70,0.00,,,0.00,0.0,meteobridge,2013-03-07 04:48:00,
2013-03-06 22:53:00,46.2,36.7,30.19,ESE,111,2.0,2.9,69,0.00,,,0.00,0.0,meteobridge,2013-03-07 04:53:00,
2013-03-06 22:58:00,46.4,36.0,30.19,ESE,111,0.9,2.9,67,0.00,,,0.00,0.0,meteobridge,2013-03-07 04:58:00,
2013-03-06 23:03:00,46.2,36.0,30.18,ESE,114,0.9,2.9,67,0.00,,,0.00,0.0,meteobridge,2013-03-07 05:03:00,
2013-03-06 23:08:00,46.2,36.0,30.18,ESE,120,2.0,4.0,67,0.00,,,0.00,0.0,meteobridge,2013-03-07 05:08:00,
2013-03-06 23:13:00,46.0,35.8,30.17,SE,125,2.0,4.0,67,0.00,,,0.00,0.0,meteobridge,2013-03-07 05:13:00,
2013-03-06 23:18:00,45.9,35.6,30.17,ESE,118,0.9,2.9,67,0.00,,,0.00,0.0,meteobridge,2013-03-07 05:18:00,
2013-03-06 23:23:00,45.7,35.8,30.17,ESE,118,0.0,2.9,68,0.00,,,0.00,0.0,meteobridge,2013-03-07 05:23:00,
2013-03-06 23:29:00,45.3,35.8,30.17,ESE,117,0.0,0.9,69,0.00,,,0.00,0.0,meteobridge,2013-03-07 05:29:00,
2013-03-06 23:34:00,45.3,35.8,30.18,ESE,118,0.0,0.0,69,0.00,,,0.00,0.0,meteobridge,2013-03-07 05:34:00,
2013-03-06 23:39:00,45.3,35.8,30.17,ESE,118,0.0,0.0,69,0.00,,,0.00,0.0,meteobridge,2013-03-07 05:39:00,
2013-03-06 23:44:00,44.1,34.5,30.18,ESE,118,0.0,0.0,69,0.00,,,0.00,0.0,meteobridge,2013-03-07 05:44:00,
2013-03-06 23:49:00,43.5,34.3,30.18,ESE,118,0.0,0.0,70,0.00,,,0.00,0.0,meteobridge,2013-03-07 05:49:00,
2013-03-06 23:55:00,42.4,34.0,30.18,ESE,118,0.0,0.0,72,0.00,,,0.00,0.0,meteobridge,2013-03-07 05:55:00,